createdAt,value
2023-01-29T00:01:15.728Z,-2.20
2023-01-29T00:06:17.911Z,-2.28
2023-01-29T00:11:20.592Z,-2.31
2023-01-29T00:16:24.781Z,-2.34
2023-01-29T00:21:26.562Z,-2.35
2023-01-29T00:26:28.664Z,-2.34
2023-01-29T00:31:31.058Z,-2.34
2023-01-29T00:36:32.883Z,-2.36
2023-01-29T00:41:54.161Z,-2.36
2023-01-29T00:46:56.048Z,-2.40
2023-01-29T00:52:30.794Z,-2.38
2023-01-29T00:57:34.857Z,-2.37
2023-01-29T01:02:55.124Z,-2.33
2023-01-29T01:07:58.319Z,-2.30
2023-01-29T01:13:06.572Z,-2.39
2023-01-29T01:18:08.288Z,-2.46
2023-01-29T01:23:10.043Z,-2.52
2023-01-29T01:28:12.835Z,-2.55
2023-01-29T01:33:14.585Z,-2.54
2023-01-29T01:38:17.155Z,-2.59
2023-01-29T01:43:18.840Z,-2.60
2023-01-29T01:48:23.724Z,-2.60
2023-01-29T01:53:34.589Z,-2.57
2023-01-29T01:58:42.635Z,-2.39
2023-01-29T02:04:28.899Z,-2.37
2023-01-29T02:09:36.503Z,-2.39
2023-01-29T02:14:41.299Z,-2.50
2023-01-29T02:20:12.024Z,-2.48
2023-01-29T02:25:23.380Z,-2.48
2023-01-29T02:30:53.833Z,-2.43
2023-01-29T02:36:24.583Z,-2.47
2023-01-29T02:41:32.157Z,-2.46
2023-01-29T02:46:53.475Z,-2.44
2023-01-29T02:52:07.493Z,-2.45
2023-01-29T02:57:22.727Z,-2.45
2023-01-29T03:02:38.151Z,-2.42
2023-01-29T03:07:46.460Z,-2.38
2023-01-29T03:13:05.109Z,-2.35
2023-01-29T03:18:10.567Z,-2.35
2023-01-29T03:23:23.835Z,-2.25
2023-01-29T03:28:46.889Z,-2.19
2023-01-29T03:33:52.096Z,-2.15
2023-01-29T03:38:53.961Z,-2.03
2023-01-29T03:44:17.664Z,-1.93
2023-01-29T03:49:28.480Z,-1.88
2023-01-29T03:54:46.964Z,-1.91
2023-01-29T04:00:07.906Z,-1.95
2023-01-29T04:05:23.065Z,-2.00
2023-01-29T04:10:44.315Z,-1.98
2023-01-29T04:15:59.938Z,-1.90
2023-01-29T04:21:32.082Z,-1.83
2023-01-29T04:26:52.932Z,-1.85
2023-01-29T04:32:13.704Z,-1.84
2023-01-29T04:37:20.727Z,-1.88
2023-01-29T04:42:49.476Z,-1.90
2023-01-29T04:48:18.613Z,-1.92
2023-01-29T04:53:25.421Z,-1.96
2023-01-29T04:58:44.818Z,-2.01
2023-01-29T05:03:55.340Z,-2.07
2023-01-29T05:08:57.902Z,-2.04
2023-01-29T05:14:04.410Z,-2.07
2023-01-29T05:19:06.081Z,-2.15
2023-01-29T05:24:21.335Z,-2.18
2023-01-29T05:29:24.117Z,-2.10
2023-01-29T05:34:26.320Z,-2.06
2023-01-29T05:39:28.034Z,-2.09
2023-01-29T05:44:29.761Z,-2.04
2023-01-29T05:49:31.394Z,-2.04
2023-01-29T05:54:32.997Z,-2.09
2023-01-29T05:59:34.767Z,-2.10
2023-01-29T06:04:36.511Z,-2.12
2023-01-29T06:09:38.317Z,-2.14
2023-01-29T06:14:40.003Z,-2.08
2023-01-29T06:19:41.751Z,-1.99
2023-01-29T06:24:43.830Z,-2.02
2023-01-29T06:29:45.679Z,-2.07
2023-01-29T06:34:49.604Z,-2.23
2023-01-29T06:39:51.808Z,-2.30
2023-01-29T06:44:56.859Z,-2.42
2023-01-29T06:49:58.585Z,-2.59
2023-01-29T06:55:00.234Z,-2.71
2023-01-29T07:00:02.017Z,-2.74
2023-01-29T07:05:04.061Z,-2.66
2023-01-29T07:10:06.556Z,-2.54
2023-01-29T07:15:08.839Z,-2.59
2023-01-29T07:20:11.389Z,-2.52
2023-01-29T07:25:14.604Z,-2.38
2023-01-29T07:30:17.688Z,-2.35
2023-01-29T07:35:19.706Z,-2.31
2023-01-29T07:40:21.564Z,-2.26
2023-01-29T07:45:23.278Z,-2.34
2023-01-29T07:50:26.625Z,-2.36
2023-01-29T07:55:28.513Z,-2.21
2023-01-29T08:00:31.606Z,-1.87
2023-01-29T08:05:34.042Z,-1.45
2023-01-29T08:10:36.748Z,-1.15
2023-01-29T08:15:39.353Z,-1.04
2023-01-29T08:20:41.369Z,-1.00
2023-01-29T08:25:43.426Z,-1.09
2023-01-29T08:30:45.317Z,-1.33
2023-01-29T08:35:51.140Z,-1.42
2023-01-29T08:40:52.821Z,-1.51
2023-01-29T08:45:54.468Z,-1.55
2023-01-29T08:51:01.316Z,-1.66
2023-01-29T08:56:03.086Z,-1.72
2023-01-29T09:01:09.938Z,-1.71
2023-01-29T09:06:13.675Z,-1.58
2023-01-29T09:11:15.603Z,-1.41
2023-01-29T09:16:17.535Z,-1.04
2023-01-29T09:21:19.917Z,-0.82
2023-01-29T09:26:21.681Z,-0.79
2023-01-29T09:31:23.838Z,-0.81
2023-01-29T09:36:25.624Z,-0.72
2023-01-29T09:41:53.081Z,-0.61
2023-01-29T09:46:56.563Z,-0.63
2023-01-29T09:52:05.319Z,-0.69
2023-01-29T09:57:15.253Z,-0.71
2023-01-29T10:02:43.015Z,-0.59
2023-01-29T10:08:21.032Z,-0.38
2023-01-29T10:13:46.378Z,-0.38
2023-01-29T10:19:19.258Z,-0.27
2023-01-29T10:24:34.059Z,-0.14
2023-01-29T10:29:35.932Z,-0.12
2023-01-29T10:34:56.663Z,0.03
2023-01-29T10:40:00.776Z,0.50
2023-01-29T10:45:22.780Z,1.14
2023-01-29T10:50:47.414Z,1.24
2023-01-29T10:56:22.359Z,0.93
2023-01-29T11:01:26.732Z,1.40
2023-01-29T11:06:31.463Z,1.10
2023-01-29T11:12:04.571Z,1.23
2023-01-29T11:17:06.274Z,1.50
2023-01-29T11:22:34.065Z,1.74
2023-01-29T11:27:46.444Z,1.99
2023-01-29T11:33:07.439Z,2.34
2023-01-29T11:38:29.585Z,2.36
2023-01-29T11:43:34.300Z,1.76
2023-01-29T11:48:52.250Z,1.80
2023-01-29T11:54:01.831Z,2.02
2023-01-29T11:59:05.240Z,2.00
2023-01-29T12:04:21.736Z,2.48
2023-01-29T12:09:29.581Z,2.79
2023-01-29T12:14:34.395Z,2.90
2023-01-29T12:19:49.004Z,2.87
2023-01-29T12:25:01.971Z,3.11
2023-01-29T12:30:27.274Z,3.19
2023-01-29T12:35:38.232Z,3.10
2023-01-29T12:40:45.160Z,2.98
2023-01-29T12:45:52.295Z,2.70
2023-01-29T12:51:08.314Z,2.37
2023-01-29T12:56:16.478Z,2.35
2023-01-29T13:01:28.782Z,2.19
2023-01-29T13:06:43.655Z,2.07
2023-01-29T13:12:07.251Z,1.73
2023-01-29T13:17:33.073Z,1.81
2023-01-29T13:22:39.516Z,1.81
2023-01-29T13:27:43.399Z,1.94
2023-01-29T13:32:52.683Z,2.10
2023-01-29T13:37:55.500Z,2.10
2023-01-29T13:43:00.415Z,1.95
2023-01-29T13:48:21.644Z,1.77
2023-01-29T13:53:27.148Z,1.75
2023-01-29T13:58:31.744Z,1.90
2023-01-29T14:04:03.418Z,1.97
2023-01-29T14:09:24.906Z,1.78
2023-01-29T14:14:48.574Z,1.86
2023-01-29T14:20:12.032Z,1.89
2023-01-29T14:25:19.521Z,1.92
2023-01-29T14:30:24.083Z,1.86
2023-01-29T14:35:30.485Z,1.81
2023-01-29T14:40:33.095Z,1.66
2023-01-29T14:45:42.040Z,1.50
2023-01-29T14:50:48.713Z,1.44
2023-01-29T14:56:01.673Z,1.37
2023-01-29T15:01:07.637Z,1.28
2023-01-29T15:06:16.240Z,1.14
2023-01-29T15:11:36.405Z,1.03
2023-01-29T15:17:29.751Z,0.95
2023-01-29T15:22:32.942Z,0.85
2023-01-29T15:27:35.195Z,0.78
2023-01-29T15:32:41.194Z,0.74
2023-01-29T15:37:43.745Z,0.63
2023-01-29T15:42:48.701Z,0.54
2023-01-29T15:47:51.662Z,0.50
2023-01-29T15:52:55.181Z,0.40
2023-01-29T15:57:57.690Z,0.39
2023-01-29T16:03:04.182Z,0.34
2023-01-29T16:08:07.695Z,0.39
2023-01-29T16:13:20.768Z,0.42
2023-01-29T16:18:36.299Z,0.54
2023-01-29T16:23:49.009Z,0.71
2023-01-29T16:28:51.343Z,0.75
2023-01-29T16:33:53.588Z,0.74
2023-01-29T16:39:02.542Z,0.68
2023-01-29T16:44:24.167Z,0.71
2023-01-29T16:49:26.141Z,0.81
2023-01-29T16:54:27.827Z,0.88
2023-01-29T16:59:35.532Z,0.85
2023-01-29T17:04:41.880Z,0.82
2023-01-29T17:09:43.633Z,0.71
2023-01-29T17:14:57.304Z,0.59
2023-01-29T17:20:10.804Z,0.49
2023-01-29T17:25:18.650Z,0.38
2023-01-29T17:30:29.973Z,0.26
2023-01-29T17:35:31.684Z,0.13
2023-01-29T17:40:42.228Z,0.05
2023-01-29T17:45:44.055Z,-0.06
2023-01-29T17:50:49.230Z,-0.06
2023-01-29T17:55:51.631Z,-0.10
2023-01-29T18:00:53.996Z,-0.18
2023-01-29T18:05:55.868Z,-0.24
2023-01-29T18:10:57.845Z,-0.26
2023-01-29T18:15:59.744Z,-0.31
2023-01-29T18:21:01.602Z,-0.37
2023-01-29T18:26:03.688Z,-0.44
2023-01-29T18:31:05.872Z,-0.44
2023-01-29T18:36:08.534Z,-0.49
2023-01-29T18:41:11.260Z,-0.54
2023-01-29T18:46:13.282Z,-0.49
2023-01-29T18:51:15.291Z,-0.48
2023-01-29T18:56:18.905Z,-0.52
2023-01-29T19:01:20.959Z,-0.57
2023-01-29T19:06:22.803Z,-0.61
2023-01-29T19:11:25.969Z,-0.66
2023-01-29T19:16:27.878Z,-0.69
2023-01-29T19:21:30.685Z,-0.73
2023-01-29T19:26:34.200Z,-0.79
2023-01-29T19:31:36.756Z,-0.84
2023-01-29T19:36:38.770Z,-0.96
2023-01-29T19:41:41.985Z,-1.04
2023-01-29T19:46:43.931Z,-1.11
2023-01-29T19:51:45.659Z,-1.16
2023-01-29T19:56:47.508Z,-1.15
2023-01-29T20:01:49.522Z,-1.14
2023-01-29T20:06:51.345Z,-1.17
2023-01-29T20:11:53.158Z,-1.21
2023-01-29T20:16:55.108Z,-1.27
2023-01-29T20:21:56.889Z,-1.32
2023-01-29T20:26:58.956Z,-1.30
2023-01-29T20:32:02.271Z,-1.38
2023-01-29T20:37:04.151Z,-1.38
2023-01-29T20:42:06.085Z,-1.32
2023-01-29T20:47:08.694Z,-1.35
2023-01-29T20:52:11.419Z,-1.34
2023-01-29T20:57:13.516Z,-1.28
2023-01-29T21:02:15.312Z,-1.25
2023-01-29T21:07:18.203Z,-1.22
2023-01-29T21:12:20.003Z,-1.21
2023-01-29T21:17:21.719Z,-1.27
2023-01-29T21:22:24.165Z,-1.34
2023-01-29T21:27:26.023Z,-1.42
2023-01-29T21:32:30.681Z,-1.55
2023-01-29T21:37:36.925Z,-1.62
2023-01-29T21:42:57.448Z,-1.62
2023-01-29T21:47:59.135Z,-1.62
2023-01-29T21:53:01.001Z,-1.61
2023-01-29T21:58:02.731Z,-1.61
2023-01-29T22:03:05.327Z,-1.67
2023-01-29T22:08:07.106Z,-1.68
2023-01-29T22:13:13.649Z,-1.69
2023-01-29T22:18:15.638Z,-1.69
2023-01-29T22:23:17.323Z,-1.63
2023-01-29T22:28:19.266Z,-1.63
2023-01-29T22:33:20.964Z,-1.71
2023-01-29T22:38:23.955Z,-1.75
2023-01-29T22:43:29.388Z,-1.84
2023-01-29T22:48:31.543Z,-1.89
2023-01-29T22:53:33.318Z,-1.89
2023-01-29T22:58:35.167Z,-1.85
2023-01-29T23:03:36.929Z,-1.78
2023-01-29T23:08:38.794Z,-1.79
2023-01-29T23:13:41.610Z,-1.78
2023-01-29T23:18:44.229Z,-1.77
2023-01-29T23:23:46.256Z,-1.78
2023-01-29T23:28:48.081Z,-1.74
2023-01-29T23:33:50.520Z,-1.74
2023-01-29T23:38:52.285Z,-1.75
2023-01-29T23:43:54.096Z,-1.76
2023-01-29T23:48:56.142Z,-1.85
2023-01-29T23:53:57.997Z,-1.93
2023-01-29T23:58:59.910Z,-1.94
